sensor_id;sensor_type;location;lat;lon;timestamp;temperature;humidity
21085;DHT22;34247;50.064;19.970;2023-03-14T00:00:14;27.10;20.00
21085;DHT22;34247;50.064;19.970;2023-03-14T00:01:19;27.10;19.90
21085;DHT22;34247;50.064;19.970;2023-03-14T00:02:23;27.10;19.80
21085;DHT22;34247;50.064;19.970;2023-03-14T00:03:28;27.10;19.80
21085;DHT22;34247;50.064;19.970;2023-03-14T00:04:32;27.20;19.80
21085;DHT22;34247;50.064;19.970;2023-03-14T00:05:36;27.20;19.80
21085;DHT22;34247;50.064;19.970;2023-03-14T00:06:40;27.20;19.70
21085;DHT22;34247;50.064;19.970;2023-03-14T00:07:43;27.20;19.60
21085;DHT22;34247;50.064;19.970;2023-03-14T00:08:47;27.30;19.60
21085;DHT22;34247;50.064;19.970;2023-03-14T00:09:52;27.30;19.50
21085;DHT22;34247;50.064;19.970;2023-03-14T00:10:55;27.40;19.40
21085;DHT22;34247;50.064;19.970;2023-03-14T00:12:01;27.40;19.40
21085;DHT22;34247;50.064;19.970;2023-03-14T00:13:06;27.40;19.50
21085;DHT22;34247;50.064;19.970;2023-03-14T00:14:10;27.40;19.50
21085;DHT22;34247;50.064;19.970;2023-03-14T00:15:15;27.40;19.50
21085;DHT22;34247;50.064;19.970;2023-03-14T00:16:19;27.50;19.40
21085;DHT22;34247;50.064;19.970;2023-03-14T00:17:23;27.50;19.40
21085;DHT22;34247;50.064;19.970;2023-03-14T00:18:27;27.50;19.40
21085;DHT22;34247;50.064;19.970;2023-03-14T00:19:31;27.60;19.30
21085;DHT22;34247;50.064;19.970;2023-03-14T00:20:35;27.60;19.20
21085;DHT22;34247;50.064;19.970;2023-03-14T00:21:38;27.60;19.10
21085;DHT22;34247;50.064;19.970;2023-03-14T00:22:42;27.60;19.20
21085;DHT22;34247;50.064;19.970;2023-03-14T00:23:46;27.60;19.20
21085;DHT22;34247;50.064;19.970;2023-03-14T00:24:50;27.70;19.20
21085;DHT22;34247;50.064;19.970;2023-03-14T00:25:58;27.70;19.30
21085;DHT22;34247;50.064;19.970;2023-03-14T00:27:03;27.70;19.10
21085;DHT22;34247;50.064;19.970;2023-03-14T00:28:06;27.80;19.00
21085;DHT22;34247;50.064;19.970;2023-03-14T00:29:10;27.80;19.10
21085;DHT22;34247;50.064;19.970;2023-03-14T00:30:14;27.80;19.10
21085;DHT22;34247;50.064;19.970;2023-03-14T00:31:19;27.90;19.10
21085;DHT22;34247;50.064;19.970;2023-03-14T00:32:22;27.90;19.10
21085;DHT22;34247;50.064;19.970;2023-03-14T00:33:26;27.80;19.10
21085;DHT22;34247;50.064;19.970;2023-03-14T00:34:31;27.90;19.20
21085;DHT22;34247;50.064;19.970;2023-03-14T00:35:36;27.80;19.10
21085;DHT22;34247;50.064;19.970;2023-03-14T00:36:40;27.90;19.20
21085;DHT22;34247;50.064;19.970;2023-03-14T00:37:44;27.90;19.10
21085;DHT22;34247;50.064;19.970;2023-03-14T00:38:49;27.90;19.20
21085;DHT22;34247;50.064;19.970;2023-03-14T00:39:55;27.90;19.20
21085;DHT22;34247;50.064;19.970;2023-03-14T00:41:09;27.90;19.20
21085;DHT22;34247;50.064;19.970;2023-03-14T00:42:15;27.90;19.20
21085;DHT22;34247;50.064;19.970;2023-03-14T00:43:20;27.90;19.20
21085;DHT22;34247;50.064;19.970;2023-03-14T00:44:25;28.00;19.20
21085;DHT22;34247;50.064;19.970;2023-03-14T00:45:29;27.90;19.20
21085;DHT22;34247;50.064;19.970;2023-03-14T00:46:33;28.00;19.20
21085;DHT22;34247;50.064;19.970;2023-03-14T00:47:37;28.00;19.30
21085;DHT22;34247;50.064;19.970;2023-03-14T00:48:41;28.00;19.20
21085;DHT22;34247;50.064;19.970;2023-03-14T00:49:45;28.00;19.20
21085;DHT22;34247;50.064;19.970;2023-03-14T00:50:50;28.00;19.20
21085;DHT22;34247;50.064;19.970;2023-03-14T00:51:55;28.00;19.20
21085;DHT22;34247;50.064;19.970;2023-03-14T00:52:58;28.00;19.20
21085;DHT22;34247;50.064;19.970;2023-03-14T00:54:03;28.10;19.20
21085;DHT22;34247;50.064;19.970;2023-03-14T00:55:07;28.10;19.20
21085;DHT22;34247;50.064;19.970;2023-03-14T00:56:12;28.10;19.10
21085;DHT22;34247;50.064;19.970;2023-03-14T00:57:16;28.10;19.20
21085;DHT22;34247;50.064;19.970;2023-03-14T00:58:20;28.10;19.00
21085;DHT22;34247;50.064;19.970;2023-03-14T00:59:24;28.10;19.00
21085;DHT22;34247;50.064;19.970;2023-03-14T01:00:27;28.10;19.10
21085;DHT22;34247;50.064;19.970;2023-03-14T01:01:31;28.10;19.10
21085;DHT22;34247;50.064;19.970;2023-03-14T01:02:35;28.10;19.10
21085;DHT22;34247;50.064;19.970;2023-03-14T01:03:39;28.10;19.10
21085;DHT22;34247;50.064;19.970;2023-03-14T01:04:42;28.10;19.10
21085;DHT22;34247;50.064;19.970;2023-03-14T01:05:46;28.20;19.00
21085;DHT22;34247;50.064;19.970;2023-03-14T01:06:49;28.10;19.10
21085;DHT22;34247;50.064;19.970;2023-03-14T01:07:53;28.10;19.10
21085;DHT22;34247;50.064;19.970;2023-03-14T01:08:57;28.10;19.20
21085;DHT22;34247;50.064;19.970;2023-03-14T01:10:03;28.10;19.10
21085;DHT22;34247;50.064;19.970;2023-03-14T01:11:11;28.10;19.10
21085;DHT22;34247;50.064;19.970;2023-03-14T01:12:17;28.10;19.20
21085;DHT22;34247;50.064;19.970;2023-03-14T01:13:22;28.10;19.10
21085;DHT22;34247;50.064;19.970;2023-03-14T01:14:26;28.10;19.10
21085;DHT22;34247;50.064;19.970;2023-03-14T01:15:34;28.10;19.20
21085;DHT22;34247;50.064;19.970;2023-03-14T01:16:39;28.20;19.10
21085;DHT22;34247;50.064;19.970;2023-03-14T01:17:46;28.20;19.00
21085;DHT22;34247;50.064;19.970;2023-03-14T01:18:50;28.10;19.00
21085;DHT22;34247;50.064;19.970;2023-03-14T01:19:55;28.10;19.10
21085;DHT22;34247;50.064;19.970;2023-03-14T01:20:59;28.10;19.10
21085;DHT22;34247;50.064;19.970;2023-03-14T01:22:03;28.10;19.10
21085;DHT22;34247;50.064;19.970;2023-03-14T01:23:07;28.10;19.00
21085;DHT22;34247;50.064;19.970;2023-03-14T01:24:11;28.10;19.00
21085;DHT22;34247;50.064;19.970;2023-03-14T01:25:16;28.00;18.90
21085;DHT22;34247;50.064;19.970;2023-03-14T01:26:23;28.10;18.90
21085;DHT22;34247;50.064;19.970;2023-03-14T01:27:28;28.10;18.90
21085;DHT22;34247;50.064;19.970;2023-03-14T01:28:32;28.10;18.80
21085;DHT22;34247;50.064;19.970;2023-03-14T01:29:36;28.10;18.80
21085;DHT22;34247;50.064;19.970;2023-03-14T01:30:40;28.10;18.80
21085;DHT22;34247;50.064;19.970;2023-03-14T01:31:43;28.10;18.80
21085;DHT22;34247;50.064;19.970;2023-03-14T01:32:50;28.10;18.90
21085;DHT22;34247;50.064;19.970;2023-03-14T01:33:54;28.00;18.80
21085;DHT22;34247;50.064;19.970;2023-03-14T01:34:58;28.10;18.80
21085;DHT22;34247;50.064;19.970;2023-03-14T01:36:03;28.20;18.80
21085;DHT22;34247;50.064;19.970;2023-03-14T01:37:07;28.20;18.80
21085;DHT22;34247;50.064;19.970;2023-03-14T01:38:11;28.10;18.70
21085;DHT22;34247;50.064;19.970;2023-03-14T01:39:17;28.10;18.70
21085;DHT22;34247;50.064;19.970;2023-03-14T01:40:21;28.10;18.70
21085;DHT22;34247;50.064;19.970;2023-03-14T01:41:25;28.20;18.70
21085;DHT22;34247;50.064;19.970;2023-03-14T01:42:30;28.20;18.70
21085;DHT22;34247;50.064;19.970;2023-03-14T01:43:34;28.10;18.80
21085;DHT22;34247;50.064;19.970;2023-03-14T01:44:55;28.10;18.80
21085;DHT22;34247;50.064;19.970;2023-03-14T01:47:12;28.20;18.90
21085;DHT22;34247;50.064;19.970;2023-03-14T01:48:16;28.20;18.50
21085;DHT22;34247;50.064;19.970;2023-03-14T01:49:32;28.20;18.90
21085;DHT22;34247;50.064;19.970;2023-03-14T01:50:39;28.20;19.40
21085;DHT22;34247;50.064;19.970;2023-03-14T01:51:49;28.30;18.80
21085;DHT22;34247;50.064;19.970;2023-03-14T01:53:04;28.20;18.90
21085;DHT22;34247;50.064;19.970;2023-03-14T01:54:18;28.10;18.90
21085;DHT22;34247;50.064;19.970;2023-03-14T01:55:25;28.10;19.00
21085;DHT22;34247;50.064;19.970;2023-03-14T01:56:30;28.00;19.00
21085;DHT22;34247;50.064;19.970;2023-03-14T01:57:41;28.00;19.10
21085;DHT22;34247;50.064;19.970;2023-03-14T01:58:51;27.90;19.10
21085;DHT22;34247;50.064;19.970;2023-03-14T02:00:08;27.90;19.20
21085;DHT22;34247;50.064;19.970;2023-03-14T02:01:18;27.80;19.20
21085;DHT22;34247;50.064;19.970;2023-03-14T02:02:26;27.80;19.10
21085;DHT22;34247;50.064;19.970;2023-03-14T02:03:38;27.80;19.10
21085;DHT22;34247;50.064;19.970;2023-03-14T02:04:56;27.90;19.10
21085;DHT22;34247;50.064;19.970;2023-03-14T02:06:06;27.80;19.20
21085;DHT22;34247;50.064;19.970;2023-03-14T02:07:16;27.70;19.20
21085;DHT22;34247;50.064;19.970;2023-03-14T02:08:23;27.80;19.30
21085;DHT22;34247;50.064;19.970;2023-03-14T02:29:55;27.60;19.60
21085;DHT22;34247;50.064;19.970;2023-03-14T02:31:02;27.60;19.70
21085;DHT22;34247;50.064;19.970;2023-03-14T02:32:07;27.60;19.70
21085;DHT22;34247;50.064;19.970;2023-03-14T02:33:13;27.60;19.80
21085;DHT22;34247;50.064;19.970;2023-03-14T02:34:22;27.60;19.80
21085;DHT22;34247;50.064;19.970;2023-03-14T02:35:35;27.60;19.80
21085;DHT22;34247;50.064;19.970;2023-03-14T02:37:01;27.50;19.70
21085;DHT22;34247;50.064;19.970;2023-03-14T02:38:24;27.50;19.80
21085;DHT22;34247;50.064;19.970;2023-03-14T02:39:45;27.40;19.80
21085;DHT22;34247;50.064;19.970;2023-03-14T02:40:49;27.40;19.90
21085;DHT22;34247;50.064;19.970;2023-03-14T02:41:53;27.40;19.90
21085;DHT22;34247;50.064;19.970;2023-03-14T02:42:57;27.40;19.90
21085;DHT22;34247;50.064;19.970;2023-03-14T02:44:01;27.30;19.90
21085;DHT22;34247;50.064;19.970;2023-03-14T02:46:17;27.30;20.00
21085;DHT22;34247;50.064;19.970;2023-03-14T02:47:28;27.30;20.00
21085;DHT22;34247;50.064;19.970;2023-03-14T02:48:38;27.30;20.10
21085;DHT22;34247;50.064;19.970;2023-03-14T02:49:46;27.20;20.00
21085;DHT22;34247;50.064;19.970;2023-03-14T02:50:55;27.30;20.10
21085;DHT22;34247;50.064;19.970;2023-03-14T02:52:01;27.20;20.10
21085;DHT22;34247;50.064;19.970;2023-03-14T02:53:05;27.20;20.10
21085;DHT22;34247;50.064;19.970;2023-03-14T02:54:09;27.30;20.20
21085;DHT22;34247;50.064;19.970;2023-03-14T02:55:13;27.30;20.20
21085;DHT22;34247;50.064;19.970;2023-03-14T02:56:17;27.30;20.20
21085;DHT22;34247;50.064;19.970;2023-03-14T02:57:21;27.30;20.20
21085;DHT22;34247;50.064;19.970;2023-03-14T02:58:26;27.30;20.20
21085;DHT22;34247;50.064;19.970;2023-03-14T02:59:30;27.40;20.10
21085;DHT22;34247;50.064;19.970;2023-03-14T03:00:33;27.40;20.10
21085;DHT22;34247;50.064;19.970;2023-03-14T03:01:37;27.30;20.10
21085;DHT22;34247;50.064;19.970;2023-03-14T03:02:40;27.30;20.10
21085;DHT22;34247;50.064;19.970;2023-03-14T03:03:44;27.30;20.10
21085;DHT22;34247;50.064;19.970;2023-03-14T03:04:48;27.30;20.20
21085;DHT22;34247;50.064;19.970;2023-03-14T03:05:53;27.30;20.20
21085;DHT22;34247;50.064;19.970;2023-03-14T03:06:58;27.20;20.20
21085;DHT22;34247;50.064;19.970;2023-03-14T03:08:02;27.20;20.20
21085;DHT22;34247;50.064;19.970;2023-03-14T03:09:06;27.20;20.20
21085;DHT22;34247;50.064;19.970;2023-03-14T03:10:10;27.20;20.20
21085;DHT22;34247;50.064;19.970;2023-03-14T03:11:14;27.20;20.30
21085;DHT22;34247;50.064;19.970;2023-03-14T03:12:18;27.20;20.30
21085;DHT22;34247;50.064;19.970;2023-03-14T03:13:23;27.20;20.40
21085;DHT22;34247;50.064;19.970;2023-03-14T03:14:28;27.20;20.30
21085;DHT22;34247;50.064;19.970;2023-03-14T03:15:32;27.20;20.30
21085;DHT22;34247;50.064;19.970;2023-03-14T03:16:36;27.20;20.30
21085;DHT22;34247;50.064;19.970;2023-03-14T03:17:40;27.30;20.30
21085;DHT22;34247;50.064;19.970;2023-03-14T03:18:43;27.20;20.30
21085;DHT22;34247;50.064;19.970;2023-03-14T03:19:47;27.20;20.30
21085;DHT22;34247;50.064;19.970;2023-03-14T03:20:51;27.20;20.30
21085;DHT22;34247;50.064;19.970;2023-03-14T03:21:55;27.20;20.40
21085;DHT22;34247;50.064;19.970;2023-03-14T03:22:59;27.20;20.40
21085;DHT22;34247;50.064;19.970;2023-03-14T03:24:03;27.20;20.30
21085;DHT22;34247;50.064;19.970;2023-03-14T03:25:08;27.30;20.30
21085;DHT22;34247;50.064;19.970;2023-03-14T03:26:12;27.30;20.30
21085;DHT22;34247;50.064;19.970;2023-03-14T03:27:16;27.30;20.30
21085;DHT22;34247;50.064;19.970;2023-03-14T03:28:20;27.30;20.30
21085;DHT22;34247;50.064;19.970;2023-03-14T03:29:24;27.30;20.30
21085;DHT22;34247;50.064;19.970;2023-03-14T03:30:28;27.30;20.30
21085;DHT22;34247;50.064;19.970;2023-03-14T03:31:33;27.30;20.30
21085;DHT22;34247;50.064;19.970;2023-03-14T03:32:37;27.30;20.30
21085;DHT22;34247;50.064;19.970;2023-03-14T03:33:40;27.30;20.30
21085;DHT22;34247;50.064;19.970;2023-03-14T03:34:45;27.30;20.20
21085;DHT22;34247;50.064;19.970;2023-03-14T03:35:49;27.30;20.20
21085;DHT22;34247;50.064;19.970;2023-03-14T03:36:56;27.30;20.20
21085;DHT22;34247;50.064;19.970;2023-03-14T03:38:00;27.30;20.20
21085;DHT22;34247;50.064;19.970;2023-03-14T03:39:04;27.30;20.80
21085;DHT22;34247;50.064;19.970;2023-03-14T03:40:08;27.30;20.30
21085;DHT22;34247;50.064;19.970;2023-03-14T03:41:13;27.20;20.20
21085;DHT22;34247;50.064;19.970;2023-03-14T03:42:17;27.20;20.30
21085;DHT22;34247;50.064;19.970;2023-03-14T03:43:22;27.20;20.30
21085;DHT22;34247;50.064;19.970;2023-03-14T03:44:26;27.20;20.30
21085;DHT22;34247;50.064;19.970;2023-03-14T03:45:30;27.20;20.30
21085;DHT22;34247;50.064;19.970;2023-03-14T03:46:34;27.20;20.30
21085;DHT22;34247;50.064;19.970;2023-03-14T03:47:38;27.20;20.30
21085;DHT22;34247;50.064;19.970;2023-03-14T03:48:42;27.10;20.30
21085;DHT22;34247;50.064;19.970;2023-03-14T03:49:46;27.10;20.30
21085;DHT22;34247;50.064;19.970;2023-03-14T03:50:50;27.10;20.40
21085;DHT22;34247;50.064;19.970;2023-03-14T03:51:54;27.00;20.90
21085;DHT22;34247;50.064;19.970;2023-03-14T03:52:58;27.10;20.40
21085;DHT22;34247;50.064;19.970;2023-03-14T03:54:01;27.00;20.40
21085;DHT22;34247;50.064;19.970;2023-03-14T03:55:06;27.00;20.40
21085;DHT22;34247;50.064;19.970;2023-03-14T03:56:10;27.00;20.50
21085;DHT22;34247;50.064;19.970;2023-03-14T03:57:13;27.00;20.50
21085;DHT22;34247;50.064;19.970;2023-03-14T03:58:17;26.90;20.40
21085;DHT22;34247;50.064;19.970;2023-03-14T03:59:21;26.90;20.50
21085;DHT22;34247;50.064;19.970;2023-03-14T04:00:25;26.80;20.50
21085;DHT22;34247;50.064;19.970;2023-03-14T04:01:32;26.80;20.50
21085;DHT22;34247;50.064;19.970;2023-03-14T04:02:35;26.70;20.50
21085;DHT22;34247;50.064;19.970;2023-03-14T04:03:39;26.70;20.60
21085;DHT22;34247;50.064;19.970;2023-03-14T04:04:44;26.70;20.60
21085;DHT22;34247;50.064;19.970;2023-03-14T04:06:09;26.70;20.60
21085;DHT22;34247;50.064;19.970;2023-03-14T04:07:14;26.70;20.70
21085;DHT22;34247;50.064;19.970;2023-03-14T04:08:18;26.70;20.70
21085;DHT22;34247;50.064;19.970;2023-03-14T04:09:22;26.60;20.70
21085;DHT22;34247;50.064;19.970;2023-03-14T04:10:25;26.60;20.70
21085;DHT22;34247;50.064;19.970;2023-03-14T04:11:29;26.60;20.80
21085;DHT22;34247;50.064;19.970;2023-03-14T04:12:33;26.50;20.70
21085;DHT22;34247;50.064;19.970;2023-03-14T04:13:37;26.50;20.80
21085;DHT22;34247;50.064;19.970;2023-03-14T04:14:41;26.50;20.90
21085;DHT22;34247;50.064;19.970;2023-03-14T04:15:45;26.50;20.90
21085;DHT22;34247;50.064;19.970;2023-03-14T04:16:48;26.40;20.80
21085;DHT22;34247;50.064;19.970;2023-03-14T04:17:56;26.40;20.90
21085;DHT22;34247;50.064;19.970;2023-03-14T04:19:02;26.40;20.90
21085;DHT22;34247;50.064;19.970;2023-03-14T04:20:07;26.40;21.00
21085;DHT22;34247;50.064;19.970;2023-03-14T04:21:14;26.40;21.00
21085;DHT22;34247;50.064;19.970;2023-03-14T04:22:18;26.40;20.90
21085;DHT22;34247;50.064;19.970;2023-03-14T04:23:23;26.30;20.90
21085;DHT22;34247;50.064;19.970;2023-03-14T04:24:28;26.30;20.90
21085;DHT22;34247;50.064;19.970;2023-03-14T04:25:32;26.30;21.00
21085;DHT22;34247;50.064;19.970;2023-03-14T04:26:35;26.30;21.00
21085;DHT22;34247;50.064;19.970;2023-03-14T04:27:40;26.30;21.00
21085;DHT22;34247;50.064;19.970;2023-03-14T04:28:44;26.30;21.10
21085;DHT22;34247;50.064;19.970;2023-03-14T04:29:48;26.30;21.00
21085;DHT22;34247;50.064;19.970;2023-03-14T04:30:52;26.30;21.00
21085;DHT22;34247;50.064;19.970;2023-03-14T04:31:56;26.30;21.10
21085;DHT22;34247;50.064;19.970;2023-03-14T04:33:00;26.30;21.10
21085;DHT22;34247;50.064;19.970;2023-03-14T04:34:04;26.30;21.10
21085;DHT22;34247;50.064;19.970;2023-03-14T04:35:08;26.30;21.10
21085;DHT22;34247;50.064;19.970;2023-03-14T04:36:12;26.30;21.10
21085;DHT22;34247;50.064;19.970;2023-03-14T04:37:17;26.30;21.10
21085;DHT22;34247;50.064;19.970;2023-03-14T04:38:21;26.30;21.20
21085;DHT22;34247;50.064;19.970;2023-03-14T04:39:26;26.30;21.20
21085;DHT22;34247;50.064;19.970;2023-03-14T04:40:30;26.30;21.20
21085;DHT22;34247;50.064;19.970;2023-03-14T04:41:33;26.30;21.70
21085;DHT22;34247;50.064;19.970;2023-03-14T04:42:37;26.30;21.20
21085;DHT22;34247;50.064;19.970;2023-03-14T04:43:41;26.30;21.20
21085;DHT22;34247;50.064;19.970;2023-03-14T04:44:45;26.30;21.20
21085;DHT22;34247;50.064;19.970;2023-03-14T04:45:49;26.30;21.20
21085;DHT22;34247;50.064;19.970;2023-03-14T04:46:54;26.30;21.30
21085;DHT22;34247;50.064;19.970;2023-03-14T04:47:58;26.30;21.30
21085;DHT22;34247;50.064;19.970;2023-03-14T04:49:02;26.30;21.30
21085;DHT22;34247;50.064;19.970;2023-03-14T04:50:09;26.30;21.20
21085;DHT22;34247;50.064;19.970;2023-03-14T04:51:13;26.30;21.20
21085;DHT22;34247;50.064;19.970;2023-03-14T04:52:17;26.30;21.30
21085;DHT22;34247;50.064;19.970;2023-03-14T04:53:24;26.30;21.20
21085;DHT22;34247;50.064;19.970;2023-03-14T04:54:31;26.30;21.30
21085;DHT22;34247;50.064;19.970;2023-03-14T04:55:34;26.30;21.30
21085;DHT22;34247;50.064;19.970;2023-03-14T04:56:38;26.30;21.40
21085;DHT22;34247;50.064;19.970;2023-03-14T04:57:41;26.30;21.40
21085;DHT22;34247;50.064;19.970;2023-03-14T04:58:45;26.20;21.50
21085;DHT22;34247;50.064;19.970;2023-03-14T04:59:53;26.20;21.50
21085;DHT22;34247;50.064;19.970;2023-03-14T05:01:02;26.30;21.50
21085;DHT22;34247;50.064;19.970;2023-03-14T05:02:09;26.20;21.50
21085;DHT22;34247;50.064;19.970;2023-03-14T05:03:15;26.20;21.50
21085;DHT22;34247;50.064;19.970;2023-03-14T05:04:19;26.20;21.50
21085;DHT22;34247;50.064;19.970;2023-03-14T05:05:23;26.20;21.60
21085;DHT22;34247;50.064;19.970;2023-03-14T05:06:27;26.20;21.60
21085;DHT22;34247;50.064;19.970;2023-03-14T05:07:30;26.20;21.60
21085;DHT22;34247;50.064;19.970;2023-03-14T05:08:34;26.20;21.70
21085;DHT22;34247;50.064;19.970;2023-03-14T05:09:38;26.20;21.70
21085;DHT22;34247;50.064;19.970;2023-03-14T05:10:41;26.20;21.70
21085;DHT22;34247;50.064;19.970;2023-03-14T05:11:45;26.20;21.70
21085;DHT22;34247;50.064;19.970;2023-03-14T05:12:48;26.10;21.70
21085;DHT22;34247;50.064;19.970;2023-03-14T05:13:52;26.10;21.70
21085;DHT22;34247;50.064;19.970;2023-03-14T05:14:56;26.10;21.70
21085;DHT22;34247;50.064;19.970;2023-03-14T05:16:08;26.10;21.80
21085;DHT22;34247;50.064;19.970;2023-03-14T05:17:14;26.10;21.80
21085;DHT22;34247;50.064;19.970;2023-03-14T05:18:18;26.10;21.80
21085;DHT22;34247;50.064;19.970;2023-03-14T05:19:22;26.10;21.90
21085;DHT22;34247;50.064;19.970;2023-03-14T05:20:26;26.00;21.80
21085;DHT22;34247;50.064;19.970;2023-03-14T05:21:33;26.00;21.80
21085;DHT22;34247;50.064;19.970;2023-03-14T05:22:36;26.00;21.90
21085;DHT22;34247;50.064;19.970;2023-03-14T05:23:40;26.00;22.00
21085;DHT22;34247;50.064;19.970;2023-03-14T05:24:44;26.00;22.00
21085;DHT22;34247;50.064;19.970;2023-03-14T05:25:50;26.00;22.00
21085;DHT22;34247;50.064;19.970;2023-03-14T05:26:54;25.90;22.00
21085;DHT22;34247;50.064;19.970;2023-03-14T05:27:58;25.90;22.00
21085;DHT22;34247;50.064;19.970;2023-03-14T05:29:02;25.90;22.00
21085;DHT22;34247;50.064;19.970;2023-03-14T05:30:07;25.90;22.10
21085;DHT22;34247;50.064;19.970;2023-03-14T05:31:11;25.90;22.10
21085;DHT22;34247;50.064;19.970;2023-03-14T05:32:15;25.90;22.10
21085;DHT22;34247;50.064;19.970;2023-03-14T05:33:19;25.90;22.20
21085;DHT22;34247;50.064;19.970;2023-03-14T05:34:23;25.90;22.20
21085;DHT22;34247;50.064;19.970;2023-03-14T05:35:30;25.90;22.10
21085;DHT22;34247;50.064;19.970;2023-03-14T05:36:35;25.90;22.20
21085;DHT22;34247;50.064;19.970;2023-03-14T05:37:39;25.90;22.20
21085;DHT22;34247;50.064;19.970;2023-03-14T05:38:43;25.90;22.20
21085;DHT22;34247;50.064;19.970;2023-03-14T05:39:50;25.90;22.30
21085;DHT22;34247;50.064;19.970;2023-03-14T05:40:53;25.90;22.40
21085;DHT22;34247;50.064;19.970;2023-03-14T05:41:58;25.90;22.30
21085;DHT22;34247;50.064;19.970;2023-03-14T05:43:01;25.90;22.30
21085;DHT22;34247;50.064;19.970;2023-03-14T05:44:05;25.90;22.30
21085;DHT22;34247;50.064;19.970;2023-03-14T05:45:09;25.90;22.30
21085;DHT22;34247;50.064;19.970;2023-03-14T05:46:14;25.90;22.30
21085;DHT22;34247;50.064;19.970;2023-03-14T05:47:18;25.90;22.30
21085;DHT22;34247;50.064;19.970;2023-03-14T05:48:21;25.90;22.30
21085;DHT22;34247;50.064;19.970;2023-03-14T05:49:25;25.90;22.30
21085;DHT22;34247;50.064;19.970;2023-03-14T05:50:29;25.90;22.30
21085;DHT22;34247;50.064;19.970;2023-03-14T05:51:33;25.90;22.30
21085;DHT22;34247;50.064;19.970;2023-03-14T05:52:46;26.00;22.40
21085;DHT22;34247;50.064;19.970;2023-03-14T05:53:49;26.00;22.40
21085;DHT22;34247;50.064;19.970;2023-03-14T05:54:53;26.00;22.40
21085;DHT22;34247;50.064;19.970;2023-03-14T05:55:57;26.00;22.40
21085;DHT22;34247;50.064;19.970;2023-03-14T05:57:01;26.00;22.40
21085;DHT22;34247;50.064;19.970;2023-03-14T05:58:04;26.00;22.40
21085;DHT22;34247;50.064;19.970;2023-03-14T05:59:08;26.00;22.40
21085;DHT22;34247;50.064;19.970;2023-03-14T06:00:13;26.00;22.40
21085;DHT22;34247;50.064;19.970;2023-03-14T06:01:17;26.00;22.40
21085;DHT22;34247;50.064;19.970;2023-03-14T06:02:21;26.00;22.40
21085;DHT22;34247;50.064;19.970;2023-03-14T06:03:25;26.10;22.40
21085;DHT22;34247;50.064;19.970;2023-03-14T06:04:29;26.10;22.40
21085;DHT22;34247;50.064;19.970;2023-03-14T06:05:33;26.10;22.40
21085;DHT22;34247;50.064;19.970;2023-03-14T06:06:36;26.10;22.40
21085;DHT22;34247;50.064;19.970;2023-03-14T06:07:40;26.10;22.40
21085;DHT22;34247;50.064;19.970;2023-03-14T06:08:44;26.10;22.40
21085;DHT22;34247;50.064;19.970;2023-03-14T06:09:48;26.10;22.40
21085;DHT22;34247;50.064;19.970;2023-03-14T06:10:52;26.20;22.40
21085;DHT22;34247;50.064;19.970;2023-03-14T06:11:56;26.20;22.40
21085;DHT22;34247;50.064;19.970;2023-03-14T06:13:00;26.20;22.50
21085;DHT22;34247;50.064;19.970;2023-03-14T06:14:03;26.20;22.50
21085;DHT22;34247;50.064;19.970;2023-03-14T06:15:08;26.20;22.50
21085;DHT22;34247;50.064;19.970;2023-03-14T06:16:12;26.30;22.50
21085;DHT22;34247;50.064;19.970;2023-03-14T06:17:17;26.20;22.40
21085;DHT22;34247;50.064;19.970;2023-03-14T06:18:21;26.30;22.40
21085;DHT22;34247;50.064;19.970;2023-03-14T06:19:26;26.40;22.40
21085;DHT22;34247;50.064;19.970;2023-03-14T06:20:30;26.40;22.30
21085;DHT22;34247;50.064;19.970;2023-03-14T06:21:38;26.40;22.30
21085;DHT22;34247;50.064;19.970;2023-03-14T06:22:42;26.40;22.30
21085;DHT22;34247;50.064;19.970;2023-03-14T06:23:46;26.40;22.30
21085;DHT22;34247;50.064;19.970;2023-03-14T06:24:53;26.40;22.30
21085;DHT22;34247;50.064;19.970;2023-03-14T06:25:57;26.40;22.30
21085;DHT22;34247;50.064;19.970;2023-03-14T06:27:01;26.50;22.40
21085;DHT22;34247;50.064;19.970;2023-03-14T06:28:06;26.40;22.30
21085;DHT22;34247;50.064;19.970;2023-03-14T06:29:10;26.40;22.30
21085;DHT22;34247;50.064;19.970;2023-03-14T06:30:17;26.50;22.40
21085;DHT22;34247;50.064;19.970;2023-03-14T06:31:21;26.50;22.40
21085;DHT22;34247;50.064;19.970;2023-03-14T06:32:25;26.50;22.40
21085;DHT22;34247;50.064;19.970;2023-03-14T06:33:29;26.50;22.40
21085;DHT22;34247;50.064;19.970;2023-03-14T06:34:32;26.60;22.50
21085;DHT22;34247;50.064;19.970;2023-03-14T06:35:36;26.60;22.40
21085;DHT22;34247;50.064;19.970;2023-03-14T06:36:42;26.60;22.30
21085;DHT22;34247;50.064;19.970;2023-03-14T06:37:48;26.70;22.40
21085;DHT22;34247;50.064;19.970;2023-03-14T06:38:52;26.70;22.30
21085;DHT22;34247;50.064;19.970;2023-03-14T06:39:56;26.70;22.30
21085;DHT22;34247;50.064;19.970;2023-03-14T06:41:05;26.80;22.80
21085;DHT22;34247;50.064;19.970;2023-03-14T06:42:09;26.80;22.20
21085;DHT22;34247;50.064;19.970;2023-03-14T06:43:14;26.90;22.20
21085;DHT22;34247;50.064;19.970;2023-03-14T06:44:18;27.00;22.20
21085;DHT22;34247;50.064;19.970;2023-03-14T06:45:22;27.00;22.20
21085;DHT22;34247;50.064;19.970;2023-03-14T06:46:25;27.10;22.20
21085;DHT22;34247;50.064;19.970;2023-03-14T06:47:33;27.20;22.20
21085;DHT22;34247;50.064;19.970;2023-03-14T06:48:37;27.30;22.10
21085;DHT22;34247;50.064;19.970;2023-03-14T06:49:41;27.40;22.10
21085;DHT22;34247;50.064;19.970;2023-03-14T06:50:44;27.50;21.90
21085;DHT22;34247;50.064;19.970;2023-03-14T06:51:49;27.70;21.90
21085;DHT22;34247;50.064;19.970;2023-03-14T06:52:53;27.80;21.80
21085;DHT22;34247;50.064;19.970;2023-03-14T06:53:58;27.90;21.60
21085;DHT22;34247;50.064;19.970;2023-03-14T06:55:02;28.00;21.60
21085;DHT22;34247;50.064;19.970;2023-03-14T06:56:06;28.20;21.60
21085;DHT22;34247;50.064;19.970;2023-03-14T06:57:10;28.30;22.10
21085;DHT22;34247;50.064;19.970;2023-03-14T06:58:14;28.40;21.50
21085;DHT22;34247;50.064;19.970;2023-03-14T06:59:18;28.50;21.30
21085;DHT22;34247;50.064;19.970;2023-03-14T07:00:22;28.70;21.20
21085;DHT22;34247;50.064;19.970;2023-03-14T07:01:30;28.80;21.00
21085;DHT22;34247;50.064;19.970;2023-03-14T07:02:36;28.90;20.90
21085;DHT22;34247;50.064;19.970;2023-03-14T07:03:45;29.10;20.90
21085;DHT22;34247;50.064;19.970;2023-03-14T07:04:49;29.30;20.80
21085;DHT22;34247;50.064;19.970;2023-03-14T07:05:53;29.40;20.70
21085;DHT22;34247;50.064;19.970;2023-03-14T07:06:57;29.50;20.50